sensor_id;sensor_type;location;lat;lon;timestamp;P1;durP1;ratioP1;P2;durP2;ratioP2
48367;SDS011;34173;47.446;18.912;2023-05-10T01:09:27;5.05;;;2.75;;
48367;SDS011;34173;47.446;18.912;2023-05-10T01:11:54;5.12;;;3.25;;
48367;SDS011;34173;47.446;18.912;2023-05-10T01:14:22;5.30;;;2.87;;
48367;SDS011;34173;47.446;18.912;2023-05-10T01:16:50;6.87;;;3.05;;
48367;SDS011;34173;47.446;18.912;2023-05-10T01:19:27;7.47;;;3.35;;
48367;SDS011;34173;47.446;18.912;2023-05-10T01:22:10;6.60;;;3.47;;
48367;SDS011;34173;47.446;18.912;2023-05-10T01:35:10;5.22;;;3.65;;
48367;SDS011;34173;47.446;18.912;2023-05-10T01:37:46;6.72;;;3.70;;
48367;SDS011;34173;47.446;18.912;2023-05-10T01:43:22;8.25;;;4.03;;
48367;SDS011;34173;47.446;18.912;2023-05-10T01:46:12;5.80;;;4.00;;
48367;SDS011;34173;47.446;18.912;2023-05-10T01:48:47;7.57;;;3.65;;
48367;SDS011;34173;47.446;18.912;2023-05-10T01:51:16;7.50;;;3.67;;
48367;SDS011;34173;47.446;18.912;2023-05-10T01:53:44;7.85;;;3.80;;
48367;SDS011;34173;47.446;18.912;2023-05-10T01:56:13;6.12;;;3.60;;
48367;SDS011;34173;47.446;18.912;2023-05-10T01:58:42;5.95;;;3.55;;
48367;SDS011;34173;47.446;18.912;2023-05-10T02:01:12;5.93;;;3.40;;
48367;SDS011;34173;47.446;18.912;2023-05-10T02:03:41;6.40;;;3.60;;
48367;SDS011;34173;47.446;18.912;2023-05-10T02:06:10;7.50;;;3.55;;
48367;SDS011;34173;47.446;18.912;2023-05-10T02:08:40;6.73;;;3.80;;
48367;SDS011;34173;47.446;18.912;2023-05-10T02:11:08;5.55;;;3.47;;
48367;SDS011;34173;47.446;18.912;2023-05-10T02:13:36;6.22;;;3.72;;
48367;SDS011;34173;47.446;18.912;2023-05-10T02:16:07;6.40;;;3.50;;
48367;SDS011;34173;47.446;18.912;2023-05-10T02:18:35;8.02;;;3.80;;
48367;SDS011;34173;47.446;18.912;2023-05-10T02:21:03;6.80;;;3.47;;
48367;SDS011;34173;47.446;18.912;2023-05-10T02:23:31;6.78;;;3.62;;
48367;SDS011;34173;47.446;18.912;2023-05-10T02:26:00;6.37;;;3.60;;
48367;SDS011;34173;47.446;18.912;2023-05-10T02:28:29;7.93;;;3.85;;
48367;SDS011;34173;47.446;18.912;2023-05-10T02:30:58;6.10;;;3.70;;
48367;SDS011;34173;47.446;18.912;2023-05-10T02:33:26;8.98;;;3.97;;
48367;SDS011;34173;47.446;18.912;2023-05-10T02:35:54;6.22;;;3.50;;
48367;SDS011;34173;47.446;18.912;2023-05-10T02:38:22;7.95;;;3.95;;
48367;SDS011;34173;47.446;18.912;2023-05-10T02:40:50;7.45;;;3.95;;
48367;SDS011;34173;47.446;18.912;2023-05-10T02:43:18;6.28;;;3.80;;
48367;SDS011;34173;47.446;18.912;2023-05-10T02:45:46;5.15;;;3.40;;
48367;SDS011;34173;47.446;18.912;2023-05-10T02:48:15;8.18;;;3.50;;
48367;SDS011;34173;47.446;18.912;2023-05-10T02:50:43;6.97;;;3.50;;
48367;SDS011;34173;47.446;18.912;2023-05-10T02:53:15;5.78;;;3.58;;
48367;SDS011;34173;47.446;18.912;2023-05-10T02:55:43;6.17;;;3.73;;
48367;SDS011;34173;47.446;18.912;2023-05-10T02:58:13;6.68;;;3.67;;
48367;SDS011;34173;47.446;18.912;2023-05-10T03:00:41;6.43;;;3.80;;
48367;SDS011;34173;47.446;18.912;2023-05-10T03:03:08;6.65;;;3.70;;
48367;SDS011;34173;47.446;18.912;2023-05-10T03:05:36;7.25;;;3.72;;
48367;SDS011;34173;47.446;18.912;2023-05-10T03:08:04;8.00;;;4.05;;
48367;SDS011;34173;47.446;18.912;2023-05-10T03:10:32;6.78;;;3.60;;
48367;SDS011;34173;47.446;18.912;2023-05-10T03:13:06;7.68;;;3.80;;
48367;SDS011;34173;47.446;18.912;2023-05-10T03:15:59;7.57;;;3.55;;
48367;SDS011;34173;47.446;18.912;2023-05-10T03:19:01;7.50;;;3.93;;
48367;SDS011;34173;47.446;18.912;2023-05-10T03:21:34;6.68;;;3.78;;
48367;SDS011;34173;47.446;18.912;2023-05-10T03:24:06;6.25;;;3.55;;
48367;SDS011;34173;47.446;18.912;2023-05-10T03:26:36;7.12;;;3.60;;
48367;SDS011;34173;47.446;18.912;2023-05-10T03:29:04;5.37;;;3.65;;
48367;SDS011;34173;47.446;18.912;2023-05-10T03:31:33;6.93;;;3.83;;
48367;SDS011;34173;47.446;18.912;2023-05-10T03:34:01;6.30;;;3.75;;
48367;SDS011;34173;47.446;18.912;2023-05-10T03:36:28;7.80;;;3.78;;
48367;SDS011;34173;47.446;18.912;2023-05-10T03:38:56;6.57;;;3.97;;
48367;SDS011;34173;47.446;18.912;2023-05-10T03:43:52;7.18;;;2.85;;
48367;SDS011;34173;47.446;18.912;2023-05-10T04:48:12;7.47;;;3.28;;
48367;SDS011;34173;47.446;18.912;2023-05-10T04:50:40;9.43;;;3.55;;
48367;SDS011;34173;47.446;18.912;2023-05-10T04:53:07;7.22;;;3.20;;
48367;SDS011;34173;47.446;18.912;2023-05-10T04:58:02;7.25;;;3.60;;
48367;SDS011;34173;47.446;18.912;2023-05-10T05:00:29;7.57;;;3.35;;
48367;SDS011;34173;47.446;18.912;2023-05-10T05:02:57;6.05;;;3.20;;
48367;SDS011;34173;47.446;18.912;2023-05-10T05:07:52;7.97;;;3.20;;
48367;SDS011;34173;47.446;18.912;2023-05-10T05:10:19;7.40;;;3.12;;
48367;SDS011;34173;47.446;18.912;2023-05-10T05:39:51;7.70;;;3.80;;
48367;SDS011;34173;47.446;18.912;2023-05-10T05:42:18;6.35;;;3.37;;
48367;SDS011;34173;47.446;18.912;2023-05-10T05:44:46;8.60;;;4.00;;
48367;SDS011;34173;47.446;18.912;2023-05-10T05:47:14;6.35;;;3.90;;
48367;SDS011;34173;47.446;18.912;2023-05-10T05:49:41;6.95;;;4.30;;
48367;SDS011;34173;47.446;18.912;2023-05-10T05:52:08;7.72;;;4.12;;
48367;SDS011;34173;47.446;18.912;2023-05-10T05:54:36;8.90;;;4.22;;
48367;SDS011;34173;47.446;18.912;2023-05-10T05:57:04;7.18;;;3.90;;
48367;SDS011;34173;47.446;18.912;2023-05-10T05:59:31;7.03;;;3.92;;
48367;SDS011;34173;47.446;18.912;2023-05-10T06:01:59;7.32;;;3.78;;
48367;SDS011;34173;47.446;18.912;2023-05-10T06:04:28;10.50;;;3.92;;
48367;SDS011;34173;47.446;18.912;2023-05-10T06:06:55;7.62;;;4.10;;
48367;SDS011;34173;47.446;18.912;2023-05-10T06:09:23;8.07;;;4.18;;
48367;SDS011;34173;47.446;18.912;2023-05-10T06:11:51;7.90;;;3.53;;
48367;SDS011;34173;47.446;18.912;2023-05-10T06:14:22;6.50;;;3.95;;
48367;SDS011;34173;47.446;18.912;2023-05-10T06:16:49;6.40;;;3.83;;
48367;SDS011;34173;47.446;18.912;2023-05-10T06:19:17;7.50;;;3.85;;
48367;SDS011;34173;47.446;18.912;2023-05-10T06:21:44;6.62;;;3.58;;
48367;SDS011;34173;47.446;18.912;2023-05-10T06:24:12;8.05;;;4.03;;
48367;SDS011;34173;47.446;18.912;2023-05-10T06:26:40;9.40;;;4.20;;
48367;SDS011;34173;47.446;18.912;2023-05-10T06:29:07;7.20;;;3.83;;
48367;SDS011;34173;47.446;18.912;2023-05-10T06:31:34;7.78;;;4.32;;
48367;SDS011;34173;47.446;18.912;2023-05-10T06:34:02;6.62;;;4.25;;
48367;SDS011;34173;47.446;18.912;2023-05-10T06:36:30;8.05;;;3.95;;
48367;SDS011;34173;47.446;18.912;2023-05-10T06:38:57;6.60;;;3.78;;
48367;SDS011;34173;47.446;18.912;2023-05-10T06:41:25;7.55;;;3.42;;
48367;SDS011;34173;47.446;18.912;2023-05-10T06:43:52;6.53;;;3.50;;
48367;SDS011;34173;47.446;18.912;2023-05-10T06:46:20;6.87;;;3.97;;
48367;SDS011;34173;47.446;18.912;2023-05-10T06:48:47;7.30;;;3.70;;
48367;SDS011;34173;47.446;18.912;2023-05-10T06:51:15;7.00;;;3.85;;
48367;SDS011;34173;47.446;18.912;2023-05-10T06:53:42;8.35;;;3.80;;
48367;SDS011;34173;47.446;18.912;2023-05-10T06:56:12;6.55;;;4.03;;
48367;SDS011;34173;47.446;18.912;2023-05-10T06:58:39;7.60;;;3.55;;
48367;SDS011;34173;47.446;18.912;2023-05-10T07:01:07;5.85;;;3.60;;
48367;SDS011;34173;47.446;18.912;2023-05-10T07:03:35;8.13;;;3.70;;
48367;SDS011;34173;47.446;18.912;2023-05-10T07:06:03;6.50;;;3.67;;
48367;SDS011;34173;47.446;18.912;2023-05-10T07:08:35;6.55;;;4.18;;
48367;SDS011;34173;47.446;18.912;2023-05-10T07:11:03;6.50;;;3.90;;
48367;SDS011;34173;47.446;18.912;2023-05-10T07:13:31;6.68;;;3.72;;
48367;SDS011;34173;47.446;18.912;2023-05-10T07:15:59;7.00;;;3.90;;
48367;SDS011;34173;47.446;18.912;2023-05-10T07:18:29;6.00;;;3.67;;
48367;SDS011;34173;47.446;18.912;2023-05-10T07:20:56;8.00;;;3.62;;
48367;SDS011;34173;47.446;18.912;2023-05-10T07:23:24;7.22;;;3.60;;
48367;SDS011;34173;47.446;18.912;2023-05-10T07:25:52;5.83;;;3.33;;
48367;SDS011;34173;47.446;18.912;2023-05-10T07:28:20;5.40;;;3.03;;
48367;SDS011;34173;47.446;18.912;2023-05-10T07:30:47;6.55;;;3.20;;
48367;SDS011;34173;47.446;18.912;2023-05-10T07:33:15;5.72;;;3.10;;
48367;SDS011;34173;47.446;18.912;2023-05-10T07:35:43;5.50;;;3.28;;
48367;SDS011;34173;47.446;18.912;2023-05-10T07:38:10;6.50;;;3.03;;
48367;SDS011;34173;47.446;18.912;2023-05-10T07:40:38;5.83;;;3.53;;
48367;SDS011;34173;47.446;18.912;2023-05-10T07:43:06;5.32;;;3.25;;
48367;SDS011;34173;47.446;18.912;2023-05-10T07:45:34;6.37;;;3.00;;
48367;SDS011;34173;47.446;18.912;2023-05-10T07:48:01;6.03;;;3.03;;
48367;SDS011;34173;47.446;18.912;2023-05-10T07:50:29;4.57;;;2.63;;
48367;SDS011;34173;47.446;18.912;2023-05-10T07:52:56;5.80;;;2.35;;
48367;SDS011;34173;47.446;18.912;2023-05-10T07:55:24;4.32;;;2.60;;
48367;SDS011;34173;47.446;18.912;2023-05-10T07:57:52;5.15;;;2.80;;
48367;SDS011;34173;47.446;18.912;2023-05-10T08:00:19;4.30;;;2.40;;
48367;SDS011;34173;47.446;18.912;2023-05-10T08:02:47;5.03;;;2.45;;
48367;SDS011;34173;47.446;18.912;2023-05-10T08:05:15;5.45;;;2.50;;
48367;SDS011;34173;47.446;18.912;2023-05-10T08:07:43;6.35;;;2.28;;
48367;SDS011;34173;47.446;18.912;2023-05-10T08:10:11;4.47;;;2.97;;
48367;SDS011;34173;47.446;18.912;2023-05-10T08:12:39;4.60;;;2.50;;
48367;SDS011;34173;47.446;18.912;2023-05-10T08:15:07;4.72;;;2.55;;
48367;SDS011;34173;47.446;18.912;2023-05-10T08:17:35;3.87;;;2.20;;
48367;SDS011;34173;47.446;18.912;2023-05-10T08:20:03;4.75;;;2.50;;
48367;SDS011;34173;47.446;18.912;2023-05-10T08:22:31;4.62;;;2.40;;
48367;SDS011;34173;47.446;18.912;2023-05-10T08:24:59;6.53;;;2.50;;
48367;SDS011;34173;47.446;18.912;2023-05-10T08:27:27;4.67;;;2.50;;
48367;SDS011;34173;47.446;18.912;2023-05-10T08:29:54;5.80;;;2.80;;
48367;SDS011;34173;47.446;18.912;2023-05-10T08:32:22;6.25;;;2.70;;
48367;SDS011;34173;47.446;18.912;2023-05-10T08:37:16;6.07;;;2.30;;
